Time;durP1;ratioP1;P1;durP2;ratioP2;P2;SDS_P1;SDS_P2;PMS_P1;PMS_P2;Temp;Humidity;BMP_temperature;BMP_pressure;BME280_temperature;BME280_humidity;BME280_pressure;Samples;Min_cycle;Max_cycle;Signal;HPM_P1;HPM_P2
2021/10/12 00:03:31;;;;;;;11.02;2.10;;;9.30;99.90;;;;;;12472323;28;20045;-84
2021/10/12 00:09:33;;;;;;;10.30;2.10;;;9.30;99.90;;;;;;12484834;28;20106;-85
2021/10/12 00:15:35;;;;;;;12.30;2.28;;;9.30;99.90;;;;;;12474474;28;20072;-85
2021/10/12 00:21:37;;;;;;;5.57;1.80;;;9.30;99.90;;;;;;12467574;28;20310;-84
2021/10/12 00:27:38;;;;;;;8.00;1.73;;;9.30;99.90;;;;;;12472878;28;20045;-84
2021/10/12 00:33:40;;;;;;;12.35;1.83;;;9.30;99.90;;;;;;12482817;28;20110;-85
2021/10/12 00:39:42;;;;;;;12.80;2.03;;;9.30;99.90;;;;;;12487402;28;20053;-85
2021/10/12 00:45:44;;;;;;;8.35;1.80;;;9.30;99.90;;;;;;12480431;28;20060;-84
2021/10/12 00:51:46;;;;;;;8.77;1.90;;;9.20;99.90;;;;;;12475317;28;20090;-84
2021/10/12 00:57:48;;;;;;;8.25;1.90;;;9.20;99.90;;;;;;12472699;28;20405;-84
2021/10/12 01:03:50;;;;;;;8.55;3.22;;;9.20;99.90;;;;;;12469072;28;20049;-84
2021/10/12 01:09:52;;;;;;;9.77;3.60;;;9.30;99.90;;;;;;12466849;28;20184;-85
2021/10/12 01:15:54;;;;;;;7.97;3.50;;;9.20;99.90;;;;;;12480886;28;20130;-84
2021/10/12 01:21:55;;;;;;;7.13;3.58;;;9.10;99.90;;;;;;12470602;28;20102;-84
2021/10/12 01:27:57;;;;;;;15.10;4.63;;;9.10;99.90;;;;;;12481934;28;20079;-84
2021/10/12 01:33:59;;;;;;;15.43;5.00;;;9.10;99.90;;;;;;12469564;28;20041;-84
2021/10/12 01:40:02;;;;;;;10.38;5.00;;;9.10;99.90;;;;;;12471272;28;20049;-84
2021/10/12 01:46:05;;;;;;;13.48;5.00;;;9.10;99.90;;;;;;12479351;28;20048;-84
2021/10/12 01:52:11;;;;;;;8.85;4.55;;;9.10;99.90;;;;;;12477498;28;20117;-84
2021/10/12 01:58:13;;;;;;;9.15;4.82;;;9.20;99.90;;;;;;12497281;28;20099;-84
2021/10/12 02:04:14;;;;;;;10.27;4.30;;;9.10;99.90;;;;;;12486475;28;20899;-83
2021/10/12 02:10:16;;;;;;;9.80;4.28;;;9.10;99.90;;;;;;12482295;28;20046;-83
2021/10/12 02:16:18;;;;;;;6.72;3.80;;;9.00;99.90;;;;;;12475188;28;20994;-84
2021/10/12 02:22:20;;;;;;;7.72;4.13;;;9.10;99.90;;;;;;12481105;28;20061;-84
2021/10/12 02:28:22;;;;;;;9.13;3.88;;;9.10;99.90;;;;;;12490619;28;20053;-84
2021/10/12 02:34:24;;;;;;;9.32;4.47;;;9.10;99.90;;;;;;12486651;28;20155;-84
2021/10/12 02:40:26;;;;;;;7.97;4.03;;;9.10;99.90;;;;;;12482639;28;20102;-84
2021/10/12 02:46:28;;;;;;;6.80;3.65;;;9.10;99.90;;;;;;12487277;28;20067;-85
2021/10/12 02:52:29;;;;;;;8.80;3.60;;;9.10;99.90;;;;;;12485546;28;20132;-85
2021/10/12 02:58:31;;;;;;;7.57;3.17;;;9.20;99.90;;;;;;12481108;28;20106;-84
2021/10/12 03:04:33;;;;;;;10.25;3.25;;;9.30;99.90;;;;;;12484428;28;20566;-84
2021/10/12 03:10:35;;;;;;;10.32;3.17;;;9.30;99.90;;;;;;12487585;28;20079;-85
2021/10/12 03:16:37;;;;;;;8.05;2.95;;;9.30;99.90;;;;;;12490826;28;20570;-84
2021/10/12 03:22:39;;;;;;;5.47;2.72;;;9.20;99.90;;;;;;12481770;28;20058;-85
2021/10/12 03:28:41;;;;;;;8.65;2.90;;;9.30;99.90;;;;;;12482939;28;20485;-85
2021/10/12 03:34:42;;;;;;;8.02;2.83;;;9.30;99.90;;;;;;12477757;28;20053;-85
2021/10/12 03:40:44;;;;;;;8.57;3.33;;;9.30;99.90;;;;;;12482043;28;20034;-85
2021/10/12 03:46:46;;;;;;;9.57;3.42;;;9.30;99.90;;;;;;12477750;28;20140;-84
2021/10/12 03:52:48;;;;;;;7.53;3.33;;;9.30;99.90;;;;;;12488545;28;20136;-84
2021/10/12 03:58:50;;;;;;;5.88;3.20;;;9.30;99.90;;;;;;12488311;28;20075;-84
2021/10/12 04:04:52;;;;;;;6.65;3.60;;;9.40;99.90;;;;;;12478604;28;20482;-86
2021/10/12 04:10:54;;;;;;;10.48;3.20;;;9.60;99.90;;;;;;12484262;28;20136;-85
2021/10/12 04:16:56;;;;;;;12.50;3.40;;;9.60;99.90;;;;;;12478689;28;20052;-85
2021/10/12 04:22:57;;;;;;;10.70;3.70;;;9.60;99.90;;;;;;12483965;28;20044;-85
2021/10/12 04:28:59;;;;;;;8.57;3.60;;;9.60;99.90;;;;;;12493020;28;20560;-85
2021/10/12 04:35:01;;;;;;;9.32;4.18;;;9.60;99.90;;;;;;12480377;28;20045;-86
2021/10/12 04:41:03;;;;;;;10.93;3.42;;;9.70;99.90;;;;;;12479896;28;20050;-85
2021/10/12 04:47:05;;;;;;;8.35;3.60;;;9.70;99.90;;;;;;12484577;28;20049;-86
2021/10/12 04:53:07;;;;;;;11.00;3.60;;;9.70;99.90;;;;;;12488856;28;20046;-85
2021/10/12 04:59:09;;;;;;;12.18;4.00;;;9.70;99.90;;;;;;12483699;28;20230;-85
2021/10/12 05:05:11;;;;;;;12.02;3.78;;;9.70;99.90;;;;;;12486850;28;20095;-85
2021/10/12 05:11:13;;;;;;;16.45;4.10;;;9.80;99.90;;;;;;12475253;28;20041;-83
2021/10/12 05:17:23;;;;;;;12.20;4.43;;;9.90;99.90;;;;;;12478572;28;20045;-84
2021/10/12 05:23:24;;;;;;;11.43;3.70;;;9.70;99.90;;;;;;12474430;28;20134;-85
2021/10/12 05:29:26;;;;;;;16.85;3.95;;;9.70;99.90;;;;;;12478420;28;20055;-85
2021/10/12 05:35:28;;;;;;;11.43;4.18;;;9.80;99.90;;;;;;12474377;28;20056;-85
2021/10/12 05:41:30;;;;;;;15.40;4.68;;;9.80;99.90;;;;;;12477718;28;20095;-84
2021/10/12 05:47:32;;;;;;;10.88;4.80;;;9.70;99.90;;;;;;12481836;28;20046;-84
2021/10/12 05:59:41;;;;;;;12.65;4.50;;;9.70;99.90;;;;;;12481995;28;20060;-85
2021/10/12 06:05:43;;;;;;;15.63;4.55;;;9.70;99.90;;;;;;12494257;28;20357;-84
2021/10/12 06:11:45;;;;;;;11.18;4.45;;;9.70;99.90;;;;;;12493985;28;20049;-84
2021/10/12 06:17:47;;;;;;;15.82;4.07;;;9.60;99.90;;;;;;12496795;28;20049;-84
2021/10/12 06:23:48;;;;;;;12.05;4.00;;;9.70;99.90;;;;;;12485627;28;20098;-84
2021/10/12 06:29:50;;;;;;;13.73;4.78;;;9.70;99.90;;;;;;12486502;28;20049;-84
2021/10/12 06:35:52;;;;;;;9.73;4.32;;;9.60;99.90;;;;;;12484486;28;20649;-85
2021/10/12 06:41:54;;;;;;;10.73;5.13;;;9.60;99.90;;;;;;12485604;28;20095;-84
2021/10/12 06:47:56;;;;;;;17.65;5.97;;;9.60;99.90;;;;;;12494959;28;20687;-83
2021/10/12 06:53:58;;;;;;;11.75;5.90;;;9.70;99.90;;;;;;12481341;28;20045;-84
2021/10/12 07:00:00;;;;;;;12.60;6.38;;;9.60;99.90;;;;;;12484013;28;20050;-85
2021/10/12 07:06:02;;;;;;;12.95;5.95;;;9.70;99.90;;;;;;12477423;28;20133;-85
2021/10/12 07:12:05;;;;;;;13.93;5.90;;;9.70;99.90;;;;;;12483194;28;20077;-84
2021/10/12 07:18:07;;;;;;;9.98;5.35;;;9.70;99.90;;;;;;12476447;28;20060;-85
2021/10/12 07:24:09;;;;;;;11.27;4.88;;;9.70;99.90;;;;;;12481503;28;20049;-86
2021/10/12 07:30:11;;;;;;;10.82;5.18;;;9.70;99.90;;;;;;12482836;28;20049;-86
2021/10/12 07:36:13;;;;;;;7.45;3.83;;;9.80;99.90;;;;;;12499392;28;20057;-84
2021/10/12 07:42:14;;;;;;;7.85;4.55;;;9.80;99.90;;;;;;12501216;28;20037;-85
2021/10/12 07:48:18;;;;;;;7.40;4.07;;;9.70;99.90;;;;;;12488269;28;20396;-85
2021/10/12 07:54:26;;;;;;;6.47;3.80;;;9.80;99.90;;;;;;12486681;28;20098;-85
2021/10/12 08:00:31;;;;;;;4.80;3.20;;;9.80;99.90;;;;;;12482681;28;20053;-85
2021/10/12 08:06:33;;;;;;;7.63;3.42;;;9.90;99.90;;;;;;12482350;28;20049;-85
2021/10/12 08:12:35;;;;;;;6.40;3.28;;;9.80;99.90;;;;;;12498013;28;20049;-85
2021/10/12 08:18:38;;;;;;;5.18;2.92;;;9.90;99.90;;;;;;12484106;28;20095;-85
2021/10/12 08:24:40;;;;;;;7.60;3.45;;;9.90;99.90;;;;;;12476560;28;20076;-86
2021/10/12 08:30:44;;;;;;;5.68;3.10;;;10.00;99.90;;;;;;12473439;28;20049;-85
2021/10/12 08:36:46;;;;;;;7.40;3.78;;;10.00;99.90;;;;;;12481825;28;20451;-85
2021/10/12 08:42:50;;;;;;;7.75;3.55;;;10.10;99.90;;;;;;12482804;28;20045;-88
2021/10/12 08:48:56;;;;;;;4.65;2.60;;;10.30;99.90;;;;;;12488018;28;20049;-90
2021/10/12 08:54:58;;;;;;;5.18;3.22;;;10.20;99.90;;;;;;12482378;28;20049;-85
2021/10/12 09:01:07;;;;;;;5.97;3.05;;;10.20;99.90;;;;;;12478360;28;20559;-87
2021/10/12 09:07:20;;;;;;;18.42;6.07;;;10.30;99.90;;;;;;12479225;28;20417;-87
2021/10/12 09:13:23;;;;;;;5.00;2.85;;;10.30;99.90;;;;;;12502436;28;20049;-86
2021/10/12 09:19:32;;;;;;;4.90;2.33;;;10.60;99.90;;;;;;12508442;28;20067;-87
2021/10/12 09:25:44;;;;;;;6.22;2.10;;;10.80;99.90;;;;;;12483764;28;20076;-86
2021/10/12 09:31:46;;;;;;;4.18;1.83;;;11.10;99.90;;;;;;12488628;28;20102;-88
2021/10/12 09:38:00;;;;;;;4.50;0.85;;;11.10;99.90;;;;;;12489057;28;20075;-89
2021/10/12 09:44:09;;;;;;;1.63;0.55;;;10.90;99.90;;;;;;12487319;28;20064;-90
2021/10/12 09:50:14;;;;;;;2.55;0.50;;;10.90;99.90;;;;;;12508337;28;20090;-86
2021/10/12 09:56:15;;;;;;;4.20;0.65;;;10.90;99.90;;;;;;12482991;28;20038;-87
2021/10/12 10:02:22;;;;;;;3.65;1.15;;;11.00;99.90;;;;;;12488571;28;20048;-87
2021/10/12 10:08:28;;;;;;;4.30;0.90;;;11.20;99.90;;;;;;12479799;28;20049;-88
2021/10/12 10:14:51;;;;;;;5.28;0.82;;;11.40;99.90;;;;;;12500541;28;20068;-89
2021/10/12 10:20:55;;;;;;;5.45;0.82;;;11.80;99.90;;;;;;12494608;28;20572;-88
2021/10/12 10:26:57;;;;;;;6.03;1.00;;;12.00;99.90;;;;;;12506082;28;20461;-87
2021/10/12 10:33:04;;;;;;;4.43;1.00;;;12.30;99.90;;;;;;12478164;28;20129;-87
2021/10/12 10:39:36;;;;;;;5.18;0.95;;;12.30;99.90;;;;;;12501027;28;20145;-89
2021/10/12 10:45:44;;;;;;;7.60;1.48;;;12.30;99.90;;;;;;12483702;28;20488;-89
2021/10/12 10:52:05;;;;;;;6.10;1.10;;;12.60;99.90;;;;;;12479626;28;20049;-87
2021/10/12 10:58:19;;;;;;;7.18;0.98;;;12.60;99.90;;;;;;12499121;28;20343;-89
2021/10/12 11:04:41;;;;;;;5.63;1.20;;;12.50;99.90;;;;;;12478709;28;20666;-89
2021/10/12 11:10:45;;;;;;;9.75;1.60;;;12.20;99.90;;;;;;12474775;28;20619;-89
2021/10/12 11:16:47;;;;;;;6.90;1.30;;;12.00;99.90;;;;;;12474299;28;20060;-89
2021/10/12 11:22:49;;;;;;;9.30;0.95;;;12.30;99.90;;;;;;12478747;28;20404;-89
2021/10/12 11:28:52;;;;;;;4.03;1.00;;;12.70;99.90;;;;;;12481851;28;20049;-88
2021/10/12 11:34:54;;;;;;;7.53;1.20;;;12.90;99.90;;;;;;12481064;28;20056;-89
2021/10/12 11:40:56;;;;;;;6.22;1.23;;;13.00;99.90;;;;;;12478195;28;20088;-88
2021/10/12 11:47:02;;;;;;;3.45;0.80;;;13.40;99.90;;;;;;12485292;28;20049;-88
2021/10/12 11:53:04;;;;;;;4.88;0.80;;;13.00;99.90;;;;;;12484735;28;20411;-88
2021/10/12 11:59:10;;;;;;;2.85;0.80;;;12.70;99.90;;;;;;12488091;28;20241;-89
2021/10/12 12:05:12;;;;;;;4.20;0.90;;;11.70;99.90;;;;;;12489487;28;20101;-90
2021/10/12 12:11:17;;;;;;;3.88;0.82;;;11.10;99.90;;;;;;12503351;28;20053;-90
2021/10/12 12:17:28;;;;;;;4.00;0.82;;;11.00;99.90;;;;;;12499582;28;20053;-89
2021/10/12 12:23:33;;;;;;;4.38;0.85;;;10.40;99.90;;;;;;12506878;28;20068;-88
2021/10/12 12:29:34;;;;;;;2.60;0.77;;;10.40;99.90;;;;;;12490666;28;20041;-90
2021/10/12 12:35:43;;;;;;;3.22;0.98;;;10.50;99.90;;;;;;12485563;28;20915;-88
2021/10/12 12:41:47;;;;;;;3.40;0.95;;;10.30;99.90;;;;;;12493216;28;20037;-90
2021/10/12 12:47:58;;;;;;;6.47;1.00;;;10.60;99.90;;;;;;12500110;28;20091;-89
2021/10/12 12:54:00;;;;;;;4.85;0.98;;;10.70;99.90;;;;;;12482180;28;20072;-88
2021/10/12 13:00:08;;;;;;;3.63;0.80;;;10.90;99.90;;;;;;12492718;28;20063;-88
2021/10/12 13:06:11;;;;;;;3.72;0.98;;;11.00;99.90;;;;;;12481809;28;20103;-88
2021/10/12 13:12:17;;;;;;;2.67;0.80;;;10.80;99.90;;;;;;12484251;28;20052;-90
2021/10/12 13:18:19;;;;;;;3.22;0.80;;;10.70;99.90;;;;;;12490607;28;20139;-87
2021/10/12 13:24:21;;;;;;;3.08;0.93;;;10.60;99.90;;;;;;12479605;28;20114;-86
2021/10/12 13:30:23;;;;;;;3.92;0.80;;;10.40;99.90;;;;;;12483492;28;20049;-87
2021/10/12 13:36:25;;;;;;;4.07;1.23;;;10.50;99.90;;;;;;12493764;28;20053;-87
2021/10/12 13:42:26;;;;;;;4.15;0.80;;;10.70;99.90;;;;;;12472174;28;20091;-88
2021/10/12 13:48:28;;;;;;;4.72;0.80;;;10.70;99.90;;;;;;12488513;28;20107;-87
2021/10/12 13:54:33;;;;;;;2.97;0.88;;;10.80;99.90;;;;;;12484679;28;20111;-87
2021/10/12 14:00:37;;;;;;;6.20;0.82;;;10.90;99.90;;;;;;12495772;28;20052;-89
2021/10/12 14:06:40;;;;;;;2.83;0.77;;;11.20;99.90;;;;;;12490591;28;20052;-88
2021/10/12 14:12:42;;;;;;;1.95;0.50;;;11.30;99.90;;;;;;12502856;28;20041;-90
2021/10/12 14:18:44;;;;;;;3.65;0.52;;;11.20;99.90;;;;;;12497358;28;20256;-88
2021/10/12 14:24:50;;;;;;;7.55;0.60;;;11.20;99.90;;;;;;12480970;28;20060;-89
2021/10/12 14:30:52;;;;;;;1.95;0.70;;;11.40;99.90;;;;;;12477329;28;20130;-88
2021/10/12 14:36:54;;;;;;;3.17;0.40;;;11.20;99.90;;;;;;12478200;28;20049;-91
2021/10/12 14:42:56;;;;;;;3.30;0.98;;;11.00;99.90;;;;;;12475448;28;20045;-87
2021/10/12 14:48:59;;;;;;;4.78;0.70;;;11.00;99.90;;;;;;12476992;28;20108;-87
2021/10/12 14:55:00;;;;;;;8.18;1.67;;;11.20;99.90;;;;;;12480059;28;20067;-88
2021/10/12 15:01:02;;;;;;;4.80;0.60;;;11.30;99.90;;;;;;12473217;28;20570;-88
2021/10/12 15:07:04;;;;;;;3.67;0.57;;;11.00;99.90;;;;;;12473647;28;20071;-87
2021/10/12 15:13:06;;;;;;;7.25;0.85;;;11.10;99.90;;;;;;12472370;28;20046;-89
2021/10/12 15:19:10;;;;;;;6.18;0.75;;;10.90;99.90;;;;;;12475809;28;20583;-89
2021/10/12 15:25:13;;;;;;;6.05;0.90;;;10.70;99.90;;;;;;12474542;28;20107;-89
2021/10/12 15:31:15;;;;;;;7.68;1.20;;;10.50;99.90;;;;;;12492088;28;20397;-88
2021/10/12 15:37:18;;;;;;;2.17;0.75;;;10.50;99.90;;;;;;12479169;28;20589;-87
2021/10/12 15:43:19;;;;;;;3.55;1.08;;;10.40;99.90;;;;;;12485265;28;20106;-87
2021/10/12 15:49:22;;;;;;;6.32;1.30;;;10.30;99.90;;;;;;12494423;28;20049;-89
2021/10/12 15:55:24;;;;;;;1.92;0.70;;;10.30;99.90;;;;;;12487617;28;20195;-87
2021/10/12 16:01:26;;;;;;;6.97;1.10;;;10.30;99.90;;;;;;12484745;28;20603;-87
2021/10/12 16:07:28;;;;;;;2.42;0.90;;;10.30;99.90;;;;;;12484565;28;20049;-87
2021/10/12 16:13:30;;;;;;;3.35;0.93;;;10.30;99.90;;;;;;12496232;28;20132;-87
2021/10/12 16:25:52;;;;;;;3.22;0.85;;;10.20;99.90;;;;;;12480169;28;20049;-87
2021/10/12 16:31:56;;;;;;;3.55;0.90;;;10.10;99.90;;;;;;12476990;28;20102;-88
2021/10/12 16:37:58;;;;;;;4.70;1.10;;;10.10;99.90;;;;;;12485629;28;20071;-87
2021/10/12 16:44:00;;;;;;;9.80;1.20;;;10.00;99.90;;;;;;12488691;28;20052;-86
2021/10/12 16:50:02;;;;;;;3.60;1.42;;;9.90;99.90;;;;;;12479158;28;20045;-86
2021/10/12 16:56:05;;;;;;;5.05;1.55;;;9.90;99.90;;;;;;12482198;28;20151;-86
2021/10/12 17:02:07;;;;;;;4.38;1.60;;;10.00;99.90;;;;;;12480113;28;20652;-86
2021/10/12 17:08:10;;;;;;;3.90;1.50;;;10.00;99.90;;;;;;12482503;28;20061;-85
2021/10/12 17:14:14;;;;;;;13.32;5.68;;;9.80;99.90;;;;;;12477376;28;20124;-87
2021/10/12 17:20:16;;;;;;;6.50;2.30;;;9.70;99.90;;;;;;12478908;28;20456;-87
2021/10/12 17:26:20;;;;;;;6.63;1.95;;;9.60;99.90;;;;;;12479700;28;20057;-85
2021/10/12 17:32:22;;;;;;;7.72;2.00;;;9.60;99.90;;;;;;12501893;28;20053;-86
2021/10/12 17:38:24;;;;;;;9.65;3.03;;;9.50;99.90;;;;;;12482670;28;20049;-86
2021/10/12 17:44:26;;;;;;;9.73;2.83;;;9.60;99.90;;;;;;12479340;28;20098;-86
2021/10/12 17:50:31;;;;;;;12.48;4.70;;;9.50;99.90;;;;;;12477092;28;20544;-86
2021/10/12 17:56:33;;;;;;;6.20;3.03;;;9.40;99.90;;;;;;12493552;28;20099;-85
2021/10/12 18:02:40;;;;;;;7.32;2.50;;;9.30;99.90;;;;;;12488108;28;20057;-85
2021/10/12 18:08:44;;;;;;;4.95;2.10;;;9.10;99.90;;;;;;12482573;28;20042;-86
2021/10/12 18:14:46;;;;;;;6.22;1.52;;;9.00;99.90;;;;;;12492389;28;20045;-86
2021/10/12 18:20:48;;;;;;;4.35;1.60;;;8.90;99.90;;;;;;12484975;28;20099;-85
2021/10/12 18:26:51;;;;;;;5.72;1.45;;;9.00;99.90;;;;;;12485332;28;20592;-86
2021/10/12 18:32:53;;;;;;;5.75;1.75;;;9.00;99.90;;;;;;12482990;28;20598;-86
2021/10/12 18:38:56;;;;;;;5.68;1.70;;;8.70;99.90;;;;;;12479769;28;20049;-86
2021/10/12 18:44:58;;;;;;;5.65;1.83;;;8.50;99.90;;;;;;12475928;28;20498;-86
2021/10/12 18:51:12;;;;;;;5.22;2.08;;;8.50;99.90;;;;;;12474041;28;20515;-86
2021/10/12 18:57:14;;;;;;;6.72;2.60;;;8.50;99.90;;;;;;12491986;28;20261;-85
2021/10/12 19:03:16;;;;;;;5.53;2.08;;;8.40;99.90;;;;;;12472646;28;20421;-86
2021/10/12 19:09:17;;;;;;;9.23;2.63;;;8.40;99.90;;;;;;12472162;28;20100;-85
2021/10/12 19:15:19;;;;;;;7.82;2.10;;;8.40;99.90;;;;;;12473903;28;20424;-86
2021/10/12 19:21:23;;;;;;;3.47;1.80;;;8.40;99.90;;;;;;12472691;28;20471;-86
2021/10/12 19:27:26;;;;;;;4.27;1.53;;;8.30;99.90;;;;;;12477886;28;20057;-85
2021/10/12 19:33:30;;;;;;;7.05;1.85;;;8.20;99.90;;;;;;12503691;28;20526;-86
2021/10/12 19:39:31;;;;;;;5.82;2.50;;;8.10;99.90;;;;;;12484579;28;20057;-85
2021/10/12 19:45:33;;;;;;;6.65;2.25;;;8.30;99.90;;;;;;12479294;28;21594;-85
2021/10/12 19:51:35;;;;;;;6.63;2.30;;;8.20;99.90;;;;;;12482559;28;20123;-85
2021/10/12 19:57:37;;;;;;;9.30;2.50;;;8.20;99.90;;;;;;12489897;28;20060;-86
2021/10/12 20:03:45;;;;;;;8.00;2.78;;;8.20;99.90;;;;;;12488727;28;20049;-86
2021/10/12 20:09:47;;;;;;;5.90;2.45;;;8.00;99.90;;;;;;12488413;28;20055;-86
2021/10/12 20:15:49;;;;;;;10.20;3.22;;;8.10;99.90;;;;;;12480890;28;20057;-84
2021/10/12 20:21:51;;;;;;;7.82;2.53;;;8.10;99.90;;;;;;12480734;28;20057;-85
2021/10/12 20:27:53;;;;;;;5.72;2.75;;;8.10;99.90;;;;;;12477959;28;20053;-85
2021/10/12 20:33:55;;;;;;;6.40;2.40;;;8.20;99.90;;;;;;12480696;28;20052;-86
2021/10/12 20:39:58;;;;;;;10.10;2.92;;;8.20;99.90;;;;;;12475480;28;20610;-85
2021/10/12 20:46:00;;;;;;;7.13;2.55;;;8.30;99.90;;;;;;12480375;28;20059;-85
2021/10/12 20:52:03;;;;;;;7.47;2.83;;;8.30;99.90;;;;;;12493327;28;20049;-85
2021/10/12 20:58:05;;;;;;;6.05;2.63;;;8.30;99.90;;;;;;12483009;28;20057;-85
2021/10/12 21:04:07;;;;;;;7.72;2.40;;;8.20;99.90;;;;;;12496111;28;20700;-84
2021/10/12 21:10:09;;;;;;;5.97;2.58;;;8.20;99.90;;;;;;12513054;28;20458;-85
2021/10/12 21:16:11;;;;;;;5.30;2.13;;;8.20;99.90;;;;;;12488133;28;20049;-85
2021/10/12 21:22:13;;;;;;;7.35;2.60;;;8.20;99.90;;;;;;12488163;28;20053;-84
2021/10/12 21:28:15;;;;;;;5.82;2.60;;;8.10;99.90;;;;;;12482276;28;20049;-85
2021/10/12 21:34:17;;;;;;;6.82;2.50;;;8.00;99.90;;;;;;12488416;28;20045;-85
2021/10/12 21:40:19;;;;;;;6.85;2.30;;;8.10;99.90;;;;;;12488586;28;20057;-84
2021/10/12 21:46:21;;;;;;;6.50;2.30;;;8.10;99.90;;;;;;12510596;28;20061;-85
2021/10/12 21:52:23;;;;;;;7.82;2.60;;;8.10;99.90;;;;;;12490072;28;20045;-85
2021/10/12 21:58:25;;;;;;;5.05;2.40;;;8.20;99.90;;;;;;12483253;28;20053;-85
2021/10/12 22:04:27;;;;;;;5.47;2.50;;;8.30;99.90;;;;;;12486909;28;20049;-85
2021/10/12 22:10:30;;;;;;;6.20;1.98;;;8.20;99.90;;;;;;12484655;28;20065;-85
2021/10/12 22:16:32;;;;;;;9.85;2.20;;;8.10;99.90;;;;;;12483647;28;20670;-85
2021/10/12 22:22:34;;;;;;;6.35;2.30;;;7.90;99.90;;;;;;12494784;28;20064;-85
2021/10/12 22:28:37;;;;;;;5.78;2.28;;;7.90;99.90;;;;;;12493288;28;20052;-85
2021/10/12 22:34:39;;;;;;;5.93;2.30;;;8.00;99.90;;;;;;12497872;28;20114;-85
2021/10/12 22:40:42;;;;;;;5.80;2.28;;;7.90;99.90;;;;;;12477004;28;20755;-85
2021/10/12 22:46:44;;;;;;;5.93;2.20;;;7.80;99.90;;;;;;12481000;28;20050;-85
2021/10/12 22:52:46;;;;;;;5.07;2.55;;;7.80;99.90;;;;;;12489744;28;20421;-85
2021/10/12 22:58:48;;;;;;;7.60;2.42;;;7.80;99.90;;;;;;12479174;28;20482;-85
2021/10/12 23:04:50;;;;;;;5.40;1.90;;;7.70;99.90;;;;;;12482848;28;20130;-85
2021/10/12 23:10:52;;;;;;;6.50;2.20;;;7.80;99.90;;;;;;12486313;28;20057;-84
2021/10/12 23:16:54;;;;;;;4.57;2.13;;;7.80;99.90;;;;;;12485545;28;20098;-85
2021/10/12 23:22:57;;;;;;;4.68;2.45;;;7.70;99.90;;;;;;12481315;28;20090;-86
2021/10/12 23:28:58;;;;;;;7.78;1.92;;;7.60;99.90;;;;;;12486270;28;20053;-85
2021/10/12 23:35:00;;;;;;;5.50;2.53;;;7.40;99.90;;;;;;12479153;28;20103;-84
2021/10/12 23:41:03;;;;;;;5.97;2.30;;;7.50;99.90;;;;;;12476002;28;20318;-85
2021/10/12 23:47:05;;;;;;;4.97;1.98;;;7.40;99.90;;;;;;12495871;28;20489;-84
2021/10/12 23:53:06;;;;;;;3.72;2.20;;;7.40;99.90;;;;;;12483103;28;20590;-85
2021/10/12 23:59:08;;;;;;;6.10;2.20;;;7.40;99.90;;;;;;12481051;28;20896;-85
